Time;durP1;ratioP1;P1;durP2;ratioP2;P2;SDS_P1;SDS_P2;PMS_P1;PMS_P2;Temp;Humidity;BMP_temperature;BMP_pressure;BME280_temperature;BME280_humidity;BME280_pressure;Samples;Min_cycle;Max_cycle;Signal;HPM_P1;HPM_P2
2022/10/18 00:00:14;;;;;;;36.00;20.98;;;12.50;99.90;;;;;;5116095;27;20043;-63
2022/10/18 00:02:40;;;;;;;47.13;21.25;;;12.50;99.90;;;;;;5134087;27;20046;-63
2022/10/18 00:05:08;;;;;;;45.50;20.60;;;12.50;99.90;;;;;;5133699;27;20043;-63
2022/10/18 00:07:35;;;;;;;38.10;20.25;;;12.50;99.90;;;;;;5115595;27;20050;-63
2022/10/18 00:10:02;;;;;;;55.70;22.35;;;12.50;99.90;;;;;;5116178;27;20051;-62
2022/10/18 00:12:29;;;;;;;52.75;23.88;;;12.40;99.90;;;;;;5133134;27;20082;-63
2022/10/18 00:14:56;;;;;;;48.65;22.38;;;12.40;99.90;;;;;;5134237;27;20660;-62
2022/10/18 00:17:24;;;;;;;45.58;22.52;;;12.40;99.90;;;;;;5133155;27;20055;-62
2022/10/18 00:19:51;;;;;;;57.78;26.58;;;12.40;99.90;;;;;;5133233;27;20039;-62
2022/10/18 00:22:18;;;;;;;61.20;25.60;;;12.40;99.90;;;;;;5115900;27;20063;-62
2022/10/18 00:24:45;;;;;;;57.28;25.48;;;12.40;99.90;;;;;;5133789;27;20047;-62
2022/10/18 00:27:12;;;;;;;47.22;24.27;;;12.40;99.90;;;;;;5133161;28;20075;-62
2022/10/18 00:29:39;;;;;;;104.90;32.28;;;12.40;99.90;;;;;;5111841;28;20044;-62
2022/10/18 00:32:06;;;;;;;108.68;34.30;;;12.40;99.90;;;;;;5094239;28;20052;-62
2022/10/18 00:34:34;;;;;;;115.65;31.63;;;12.40;99.90;;;;;;5113624;28;20051;-62
2022/10/18 00:37:01;;;;;;;154.88;32.15;;;12.50;99.90;;;;;;5133766;28;20054;-62
2022/10/18 00:39:28;;;;;;;142.18;34.95;;;12.50;99.90;;;;;;5114958;28;20066;-62
2022/10/18 00:41:54;;;;;;;64.05;23.15;;;12.50;99.90;;;;;;5114924;28;20051;-63
2022/10/18 00:45:00;;;;;;;209.20;46.33;;;12.50;99.90;;;;;;5134034;28;20054;-63
2022/10/18 00:47:28;;;;;;;236.35;37.00;;;12.40;99.90;;;;;;5132823;28;20147;-63
2022/10/18 00:50:00;;;;;;;156.68;32.30;;;12.40;99.90;;;;;;5133907;28;20383;-62
2022/10/18 00:52:32;;;;;;;200.77;42.58;;;12.40;99.90;;;;;;5115160;28;20490;-63
2022/10/18 00:54:59;;;;;;;161.88;29.38;;;12.40;99.90;;;;;;5133375;28;20134;-63
2022/10/18 00:57:26;;;;;;;132.73;30.70;;;12.40;99.90;;;;;;5133509;28;20047;-62
2022/10/18 00:59:54;;;;;;;194.80;35.33;;;12.40;99.90;;;;;;5129025;28;20096;-62
2022/10/18 01:02:21;;;;;;;177.57;34.35;;;12.40;99.90;;;;;;5094841;28;20059;-62
2022/10/18 01:04:48;;;;;;;221.85;42.70;;;12.30;99.90;;;;;;5095036;28;20055;-63
2022/10/18 01:07:28;;;;;;;241.82;35.70;;;12.30;99.90;;;;;;5094257;28;20105;-63
2022/10/18 01:10:02;;;;;;;303.65;40.42;;;12.30;99.90;;;;;;5095041;28;20518;-63
2022/10/18 01:12:37;;;;;;;295.30;37.67;;;12.30;99.90;;;;;;5112922;28;20051;-62
2022/10/18 01:15:10;;;;;;;149.60;32.13;;;12.30;99.90;;;;;;5114239;28;20059;-63
2022/10/18 01:17:51;;;;;;;270.05;45.53;;;12.30;99.90;;;;;;5131542;28;20099;-62
2022/10/18 01:20:41;;;;;;;243.98;34.63;;;12.30;99.90;;;;;;5133413;28;20051;-62
2022/10/18 01:23:13;;;;;;;;;;;12.20;99.90;;;;;;5115005;28;20059;-63
2022/10/18 01:25:50;;;;;;;376.00;65.22;;;12.20;99.90;;;;;;5133500;28;19965;-62
2022/10/18 01:28:33;;;;;;;310.33;47.22;;;12.20;99.90;;;;;;5114339;28;20581;-63
2022/10/18 01:31:05;;;;;;;215.43;36.25;;;12.20;99.90;;;;;;5115530;28;20433;-63
2022/10/18 01:33:38;;;;;;;211.68;31.55;;;12.20;99.90;;;;;;5133296;28;20051;-63
2022/10/18 01:36:11;;;;;;;219.57;38.83;;;12.20;99.90;;;;;;5113962;28;20051;-63
2022/10/18 01:38:40;;;;;;;276.85;36.05;;;12.20;99.90;;;;;;5114507;28;20050;-62
2022/10/18 01:41:09;;;;;;;256.55;46.58;;;12.20;99.90;;;;;;5114322;27;20500;-62
2022/10/18 01:43:37;;;;;;;289.80;37.38;;;12.20;99.90;;;;;;5117210;27;20047;-62
2022/10/18 01:46:06;;;;;;;160.55;27.88;;;12.20;99.90;;;;;;5136666;27;20478;-63
2022/10/18 01:48:36;;;;;;;207.07;37.13;;;12.20;99.90;;;;;;5136111;27;20050;-63
2022/10/18 01:51:03;;;;;;;229.80;37.55;;;12.30;99.90;;;;;;5118298;27;20522;-63
2022/10/18 01:53:33;;;;;;;258.52;38.53;;;12.30;99.90;;;;;;5136736;27;20516;-63
2022/10/18 01:56:24;;;;;;;181.43;37.13;;;12.40;99.90;;;;;;5136631;27;20047;-63
2022/10/18 01:59:02;;;;;;;165.73;30.65;;;12.30;99.90;;;;;;5136574;27;20053;-63
2022/10/18 02:01:41;;;;;;;169.80;27.63;;;12.30;99.90;;;;;;5118114;27;20047;-63
2022/10/18 02:04:19;;;;;;;147.38;33.35;;;12.30;99.90;;;;;;5115243;28;20487;-62
2022/10/18 02:06:49;;;;;;;218.55;35.20;;;12.30;99.90;;;;;;5116009;28;20047;-63
2022/10/18 02:09:18;;;;;;;;;;;12.30;99.90;;;;;;5116355;28;20097;-62
2022/10/18 02:11:47;;;;;;;160.02;27.48;;;12.30;99.90;;;;;;5115570;28;19926;-62
2022/10/18 02:14:15;;;;;;;145.68;33.85;;;12.30;99.90;;;;;;5097638;28;20067;-63
2022/10/18 02:16:48;;;;;;;185.95;29.50;;;12.30;99.90;;;;;;5118822;27;20486;-62
2022/10/18 02:19:17;;;;;;;225.85;30.08;;;12.30;99.90;;;;;;5117975;27;20440;-63
2022/10/18 02:21:47;;;;;;;210.23;29.20;;;12.30;99.90;;;;;;5136281;27;20049;-63
2022/10/18 02:24:15;;;;;;;311.67;43.03;;;12.40;99.90;;;;;;5117732;27;20051;-63
2022/10/18 02:26:42;;;;;;;210.48;29.77;;;12.40;99.90;;;;;;5117340;27;20051;-63
2022/10/18 02:29:09;;;;;;;238.85;35.90;;;12.40;99.90;;;;;;5118087;27;20062;-64
2022/10/18 02:31:41;;;;;;;234.35;33.47;;;12.40;99.90;;;;;;5116773;27;20379;-63
2022/10/18 02:34:16;;;;;;;220.63;28.20;;;12.40;99.90;;;;;;5117861;27;20547;-63
2022/10/18 02:36:46;;;;;;;174.57;28.10;;;12.40;99.90;;;;;;5117727;27;20092;-64
2022/10/18 02:39:18;;;;;;;238.37;34.83;;;12.50;99.90;;;;;;5116887;27;20452;-63
2022/10/18 02:41:45;;;;;;;281.17;41.53;;;12.50;99.90;;;;;;5135962;27;20100;-62
2022/10/18 02:44:12;;;;;;;304.90;45.70;;;12.50;99.90;;;;;;5135917;27;20047;-63
2022/10/18 02:46:40;;;;;;;307.85;50.80;;;12.50;99.90;;;;;;5127116;27;20039;-63
2022/10/18 02:49:08;;;;;;;449.95;65.88;;;12.50;99.90;;;;;;5115041;28;20109;-63
2022/10/18 02:51:35;;;;;;;163.15;29.63;;;12.60;99.90;;;;;;5113627;28;20044;-62
2022/10/18 02:54:02;;;;;;;170.82;29.35;;;12.60;99.90;;;;;;5112106;28;20051;-62
2022/10/18 02:56:29;;;;;;;231.50;32.65;;;12.60;99.90;;;;;;5113944;28;20093;-62
2022/10/18 02:58:56;;;;;;;327.52;45.75;;;12.60;99.90;;;;;;5113643;28;20055;-63
2022/10/18 03:01:23;;;;;;;273.85;36.03;;;12.60;99.90;;;;;;5114230;27;20509;-63
2022/10/18 03:03:50;;;;;;;320.85;49.40;;;12.60;99.90;;;;;;5115119;28;20055;-63
2022/10/18 03:06:18;;;;;;;242.48;42.42;;;12.60;99.90;;;;;;5113702;28;20482;-62
2022/10/18 03:08:45;;;;;;;213.13;33.90;;;12.60;99.90;;;;;;5113019;28;20552;-62
2022/10/18 03:11:12;;;;;;;318.92;42.47;;;12.70;99.90;;;;;;5115051;27;20430;-62
2022/10/18 03:13:39;;;;;;;200.50;30.95;;;12.60;99.90;;;;;;5113030;28;20511;-62
2022/10/18 03:16:06;;;;;;;225.95;34.20;;;12.60;99.90;;;;;;5114513;28;20437;-62
2022/10/18 03:18:33;;;;;;;150.40;28.85;;;12.60;99.90;;;;;;5113710;28;20047;-63
2022/10/18 03:21:04;;;;;;;234.68;34.67;;;12.60;99.90;;;;;;5113950;28;20044;-63
2022/10/18 03:23:33;;;;;;;167.20;28.73;;;12.60;99.90;;;;;;5114664;28;20090;-63
2022/10/18 03:26:00;;;;;;;235.40;34.45;;;12.60;99.90;;;;;;5110072;28;20052;-63
2022/10/18 03:28:27;;;;;;;179.52;27.80;;;12.50;99.90;;;;;;5096115;27;20052;-63
2022/10/18 03:30:54;;;;;;;217.50;28.65;;;12.50;99.90;;;;;;5114506;28;20048;-62
2022/10/18 03:33:21;;;;;;;163.18;27.45;;;12.50;99.90;;;;;;5113252;28;20059;-62
2022/10/18 03:35:47;;;;;;;164.02;27.45;;;12.50;99.90;;;;;;5113533;28;20051;-63
2022/10/18 03:38:14;;;;;;;177.38;30.52;;;12.40;99.90;;;;;;5113831;27;20059;-63
2022/10/18 03:40:42;;;;;;;162.60;29.23;;;12.40;99.90;;;;;;5112281;28;20100;-63
2022/10/18 03:43:09;;;;;;;175.75;30.80;;;12.40;99.90;;;;;;5113710;28;20054;-62
2022/10/18 03:45:36;;;;;;;177.75;31.63;;;12.40;99.90;;;;;;5114504;28;20127;-63
2022/10/18 03:48:04;;;;;;;208.52;31.27;;;12.40;99.90;;;;;;5112529;28;20453;-63
2022/10/18 03:50:31;;;;;;;193.15;29.52;;;12.40;99.90;;;;;;5107593;27;20052;-63
2022/10/18 03:52:57;;;;;;;146.25;30.23;;;12.30;99.90;;;;;;5091793;28;20047;-62
2022/10/18 03:55:24;;;;;;;185.00;31.75;;;12.30;99.90;;;;;;5111689;28;20050;-61
2022/10/18 03:57:53;;;;;;;167.80;26.02;;;12.30;99.90;;;;;;5111214;28;20563;-63
2022/10/18 04:00:20;;;;;;;179.43;29.42;;;12.10;99.90;;;;;;5094003;28;20047;-62
2022/10/18 04:02:46;;;;;;;164.77;31.13;;;12.30;99.90;;;;;;5111642;27;20105;-62
2022/10/18 04:05:14;;;;;;;208.18;32.50;;;12.30;99.90;;;;;;5092613;28;20055;-63
2022/10/18 04:07:40;;;;;;;169.05;30.33;;;12.20;99.90;;;;;;5094886;27;20122;-62
2022/10/18 04:10:08;;;;;;;125.18;24.73;;;12.20;99.90;;;;;;5093118;28;20054;-63
2022/10/18 04:12:35;;;;;;;102.38;21.77;;;12.20;99.90;;;;;;5094805;28;20404;-63
2022/10/18 04:15:03;;;;;;;164.20;30.85;;;12.40;99.90;;;;;;5095174;28;20044;-62
2022/10/18 04:17:30;;;;;;;162.05;23.30;;;12.50;99.90;;;;;;5110673;28;20050;-63
2022/10/18 04:19:57;;;;;;;100.28;17.52;;;12.60;99.90;;;;;;5094627;28;20100;-62
2022/10/18 04:22:24;;;;;;;206.18;24.98;;;12.60;99.90;;;;;;5095183;28;20047;-63
2022/10/18 04:24:52;;;;;;;239.85;32.05;;;12.80;99.90;;;;;;5099444;28;20097;-62
2022/10/18 04:27:19;;;;;;;133.68;17.80;;;13.00;99.90;;;;;;5094153;28;20054;-63
2022/10/18 04:29:46;;;;;;;82.07;16.80;;;13.00;99.90;;;;;;5110875;28;20051;-63
2022/10/18 04:32:14;;;;;;;139.00;20.90;;;12.90;99.90;;;;;;5110753;28;20044;-62
2022/10/18 04:34:41;;;;;;;162.48;26.30;;;12.80;99.90;;;;;;5093271;28;20104;-63
2022/10/18 04:37:08;;;;;;;245.45;32.60;;;12.80;99.90;;;;;;5111659;28;20124;-62
2022/10/18 04:39:35;;;;;;;182.60;23.73;;;12.80;99.90;;;;;;5115088;28;20055;-62
2022/10/18 04:42:01;;;;;;;174.40;27.17;;;12.60;99.90;;;;;;5094044;28;20048;-63
2022/10/18 04:44:28;;;;;;;264.73;30.63;;;12.50;99.90;;;;;;5115504;28;20093;-62
2022/10/18 04:46:55;;;;;;;237.95;33.70;;;12.30;99.90;;;;;;5097576;28;20055;-62
2022/10/18 04:49:23;;;;;;;171.73;24.98;;;12.20;99.90;;;;;;5098061;28;20445;-63
2022/10/18 04:51:50;;;;;;;320.77;34.65;;;12.20;99.90;;;;;;5111535;28;20559;-64
2022/10/18 04:54:17;;;;;;;226.02;29.02;;;12.10;99.90;;;;;;5109600;28;20112;-62
2022/10/18 04:56:44;;;;;;;249.38;32.00;;;12.00;99.90;;;;;;5094627;28;20649;-62
2022/10/18 04:59:11;;;;;;;168.30;23.40;;;12.00;99.90;;;;;;5111094;28;20434;-62
2022/10/18 05:01:38;;;;;;;372.02;55.03;;;12.00;99.90;;;;;;5099964;28;20039;-62
2022/10/18 05:04:05;;;;;;;197.23;32.90;;;11.90;99.90;;;;;;5111502;28;20044;-62
2022/10/18 05:06:33;;;;;;;218.40;27.27;;;11.90;99.90;;;;;;5110844;28;20044;-62
2022/10/18 05:09:00;;;;;;;196.30;26.90;;;11.90;99.90;;;;;;5113314;28;20481;-62
2022/10/18 05:11:27;;;;;;;142.75;21.92;;;11.90;99.90;;;;;;5093369;28;20044;-62
2022/10/18 05:13:54;;;;;;;192.02;30.17;;;11.90;99.90;;;;;;5092215;28;20055;-62
2022/10/18 05:16:20;;;;;;;194.35;31.83;;;11.90;99.90;;;;;;5112166;28;20491;-63
2022/10/18 05:18:47;;;;;;;271.17;39.35;;;11.90;99.90;;;;;;5103847;28;20048;-63
2022/10/18 05:21:14;;;;;;;187.75;32.08;;;11.80;99.90;;;;;;5114347;28;20052;-63
2022/10/18 05:23:43;;;;;;;200.82;29.60;;;11.80;99.90;;;;;;5115688;27;20092;-62
2022/10/18 05:26:09;;;;;;;241.32;23.88;;;11.80;99.90;;;;;;5114346;28;20044;-62
2022/10/18 05:28:37;;;;;;;194.48;26.17;;;11.80;99.90;;;;;;5114074;28;20047;-62
2022/10/18 05:31:05;;;;;;;159.15;21.60;;;11.70;99.90;;;;;;5097113;28;20071;-62
2022/10/18 05:33:33;;;;;;;376.27;48.72;;;11.70;99.90;;;;;;5114429;28;20064;-62
2022/10/18 05:35:59;;;;;;;274.05;30.83;;;11.60;99.90;;;;;;5115891;27;20052;-61
2022/10/18 05:38:29;;;;;;;254.35;27.65;;;11.60;99.90;;;;;;5102545;28;20482;-62
2022/10/18 05:40:58;;;;;;;307.42;29.67;;;11.50;99.90;;;;;;5095739;28;20048;-62
2022/10/18 05:43:28;;;;;;;304.67;27.83;;;11.50;99.90;;;;;;5095650;28;20047;-62
2022/10/18 05:45:55;;;;;;;254.25;28.25;;;11.40;99.90;;;;;;5097742;27;20570;-62
2022/10/18 05:48:22;;;;;;;357.42;31.23;;;11.40;99.90;;;;;;5096149;28;20055;-62
2022/10/18 05:50:49;;;;;;;330.90;30.63;;;11.30;99.90;;;;;;5116405;27;20055;-62
2022/10/18 05:53:16;;;;;;;326.20;29.88;;;11.30;99.90;;;;;;5096026;28;20069;-61
2022/10/18 05:55:43;;;;;;;318.35;35.13;;;11.20;99.90;;;;;;5116447;27;20043;-62
2022/10/18 05:58:11;;;;;;;359.30;42.60;;;11.30;99.90;;;;;;5102438;28;20491;-63
2022/10/18 06:00:38;;;;;;;312.83;30.40;;;11.20;99.90;;;;;;5096883;28;20055;-63
2022/10/18 06:03:05;;;;;;;257.38;24.90;;;11.20;99.90;;;;;;5096188;27;20131;-63
2022/10/18 06:05:32;;;;;;;184.23;18.63;;;11.10;99.90;;;;;;5107250;28;20081;-63
2022/10/18 06:08:14;;;;;;;347.45;39.78;;;11.10;99.90;;;;;;5119520;27;20051;-63
2022/10/18 06:10:41;;;;;;;178.30;23.77;;;11.00;99.90;;;;;;5114141;28;20052;-63
2022/10/18 06:13:07;;;;;;;142.35;17.35;;;11.00;99.90;;;;;;5104425;28;20097;-63
2022/10/18 06:15:36;;;;;;;156.23;22.13;;;11.00;99.90;;;;;;5108656;28;20105;-63
2022/10/18 06:18:02;;;;;;;122.30;17.77;;;10.90;99.90;;;;;;5096991;28;20048;-62
2022/10/18 06:20:29;;;;;;;170.10;28.02;;;10.90;99.90;;;;;;5115766;28;20112;-62
2022/10/18 06:22:56;;;;;;;194.02;22.20;;;10.90;99.90;;;;;;5097002;28;20096;-63
2022/10/18 06:25:23;;;;;;;173.95;19.40;;;10.80;99.90;;;;;;5115120;28;20058;-62
2022/10/18 06:27:50;;;;;;;314.20;31.75;;;10.70;99.90;;;;;;5115118;28;20067;-63
2022/10/18 06:30:17;;;;;;;218.43;21.67;;;10.70;99.90;;;;;;5111954;27;20047;-63
2022/10/18 06:32:45;;;;;;;215.82;19.52;;;10.70;99.90;;;;;;5112773;27;20388;-63
2022/10/18 06:35:12;;;;;;;241.85;24.25;;;10.60;99.90;;;;;;5115288;28;20101;-63
2022/10/18 06:37:39;;;;;;;253.70;20.25;;;10.60;99.90;;;;;;5119469;27;20047;-63
2022/10/18 06:40:07;;;;;;;186.10;18.70;;;10.60;99.90;;;;;;5117318;27;20055;-63
2022/10/18 06:42:34;;;;;;;206.57;16.52;;;10.50;99.90;;;;;;5111564;28;20051;-63
2022/10/18 06:45:02;;;;;;;172.55;17.88;;;10.50;99.90;;;;;;5114320;28;20500;-63
2022/10/18 06:47:31;;;;;;;231.38;25.17;;;10.50;99.90;;;;;;5096751;28;20132;-63
2022/10/18 06:50:00;;;;;;;171.70;18.92;;;10.40;99.90;;;;;;5114503;28;20051;-63
2022/10/18 06:52:30;;;;;;;101.82;13.05;;;10.40;99.90;;;;;;5114103;28;20096;-63
2022/10/18 06:55:06;;;;;;;173.63;22.23;;;10.40;99.90;;;;;;5114969;28;20055;-63
2022/10/18 06:57:33;;;;;;;261.60;22.85;;;10.50;99.90;;;;;;5113752;27;20090;-63
2022/10/18 07:00:00;;;;;;;206.55;22.17;;;10.50;99.90;;;;;;5128056;27;20051;-64
2022/10/18 07:02:27;;;;;;;289.23;26.33;;;10.50;99.90;;;;;;5135334;27;20054;-63
2022/10/18 07:04:54;;;;;;;217.27;18.40;;;10.50;99.90;;;;;;5108410;28;20055;-63
2022/10/18 07:07:22;;;;;;;192.43;18.75;;;10.60;99.90;;;;;;5113970;28;20052;-63
2022/10/18 07:09:49;;;;;;;239.55;22.40;;;10.70;99.90;;;;;;5096572;28;20055;-63
2022/10/18 07:12:16;;;;;;;133.98;15.10;;;10.80;99.90;;;;;;5102363;28;20059;-63
2022/10/18 07:17:27;;;;;;;154.20;17.48;;;10.90;99.90;;;;;;5093074;28;20047;-63
2022/10/18 07:19:54;;;;;;;136.02;15.27;;;11.00;99.90;;;;;;5132770;27;20100;-63
2022/10/18 07:22:22;;;;;;;143.77;15.90;;;11.00;99.90;;;;;;5107571;28;20089;-63
2022/10/18 07:24:49;;;;;;;173.38;15.85;;;11.10;99.90;;;;;;5114365;28;20399;-63
2022/10/18 07:27:16;;;;;;;143.43;13.77;;;11.20;99.90;;;;;;5113398;28;20055;-63
2022/10/18 07:29:43;;;;;;;150.43;14.40;;;11.50;99.90;;;;;;5095599;28;20055;-63
2022/10/18 07:32:10;;;;;;;79.15;11.38;;;11.70;99.90;;;;;;5095927;28;20060;-64
2022/10/18 07:34:37;;;;;;;89.88;9.63;;;12.20;99.90;;;;;;5095087;28;20502;-63
2022/10/18 07:37:04;;;;;;;57.42;10.68;;;12.40;99.90;;;;;;5096154;28;20052;-63
2022/10/18 07:39:32;;;;;;;48.47;7.72;;;12.80;99.90;;;;;;5094896;28;20055;-63
2022/10/18 07:41:59;;;;;;;50.83;9.40;;;13.10;99.90;;;;;;5094678;28;20091;-62
2022/10/18 07:44:26;;;;;;;21.98;5.80;;;13.50;99.90;;;;;;5095967;28;20093;-64
2022/10/18 07:46:53;;;;;;;20.33;5.15;;;13.90;99.90;;;;;;5095595;28;20079;-63
2022/10/18 07:49:20;;;;;;;14.43;5.05;;;14.30;99.90;;;;;;5095093;28;20115;-63
2022/10/18 07:51:47;;;;;;;26.92;4.95;;;14.60;99.90;;;;;;5113703;28;20055;-62
2022/10/18 07:54:14;;;;;;;11.40;4.60;;;14.80;99.90;;;;;;5102396;27;20058;-62
2022/10/18 07:56:42;;;;;;;11.77;4.03;;;14.90;99.90;;;;;;5124328;27;20499;-63
2022/10/18 07:59:10;;;;;;;11.82;4.07;;;15.80;99.90;;;;;;5113383;28;20044;-63
2022/10/18 08:01:36;;;;;;;6.63;3.92;;;16.30;99.90;;;;;;5112876;28;20138;-63
2022/10/18 08:04:03;;;;;;;4.72;3.53;;;17.10;99.90;;;;;;5111795;28;20047;-63
2022/10/18 08:06:30;;;;;;;7.85;3.53;;;18.10;99.90;;;;;;5095673;28;20051;-63
2022/10/18 08:08:57;;;;;;;5.82;3.50;;;19.30;99.90;;;;;;5113162;28;20051;-63
2022/10/18 08:11:25;;;;;;;7.05;4.03;;;20.20;99.90;;;;;;5116769;27;20047;-63
2022/10/18 08:13:54;;;;;;;5.78;3.40;;;20.90;99.90;;;;;;5096127;27;20491;-63
2022/10/18 08:16:23;;;;;;;5.15;3.10;;;21.30;99.90;;;;;;5115119;27;20086;-64
2022/10/18 08:18:50;;;;;;;8.30;3.42;;;22.00;99.90;;;;;;5115837;27;20444;-64
2022/10/18 08:21:18;;;;;;;5.63;3.13;;;22.70;99.90;;;;;;5133712;27;20055;-64
2022/10/18 08:23:45;;;;;;;8.45;2.92;;;22.80;99.90;;;;;;5114663;27;20095;-62
2022/10/18 08:26:14;;;;;;;6.00;2.72;;;22.80;99.90;;;;;;5125549;27;20047;-63
2022/10/18 08:28:41;;;;;;;6.13;2.65;;;23.40;99.90;;;;;;5113166;28;20059;-64
2022/10/18 08:31:12;;;;;;;4.78;2.53;;;23.70;99.90;;;;;;5112667;28;20490;-64
2022/10/18 08:33:40;;;;;;;5.75;2.50;;;24.40;99.90;;;;;;5112169;28;20096;-65
2022/10/18 08:36:08;;;;;;;4.75;2.42;;;24.70;99.90;;;;;;5118095;27;20088;-64
2022/10/18 08:38:37;;;;;;;6.50;3.00;;;25.30;99.90;;;;;;5130188;27;20051;-64
2022/10/18 08:41:33;;;;;;;5.80;2.67;;;24.90;99.90;;;;;;5112940;28;20059;-64
2022/10/18 08:44:07;;;;;;;5.07;2.25;;;25.10;98.90;;;;;;5103872;28;20486;-62
2022/10/18 08:46:38;;;;;;;4.85;2.20;;;25.20;98.50;;;;;;5104314;28;20047;-64
2022/10/18 08:49:09;;;;;;;6.53;2.22;;;25.30;97.90;;;;;;5133476;28;20120;-63
2022/10/18 08:51:42;;;;;;;7.05;2.45;;;25.60;99.60;;;;;;5132583;27;20051;-64
2022/10/18 08:54:12;;;;;;;5.88;2.58;;;26.40;98.60;;;;;;5112288;28;20044;-64
2022/10/18 08:56:41;;;;;;;8.77;2.38;;;26.70;97.30;;;;;;5098946;28;20051;-64
2022/10/18 08:59:10;;;;;;;8.07;2.20;;;26.90;97.10;;;;;;5098451;28;20449;-64
2022/10/18 09:01:46;;;;;;;5.63;2.20;;;26.60;96.00;;;;;;5098580;28;20047;-65
2022/10/18 09:04:32;;;;;;;5.40;2.40;;;26.50;94.50;;;;;;5099246;27;20376;-65
2022/10/18 09:07:16;;;;;;;8.18;2.80;;;26.20;93.80;;;;;;5101846;28;20479;-65
2022/10/18 09:09:47;;;;;;;10.80;2.67;;;26.10;92.60;;;;;;5105329;28;20043;-65
2022/10/18 09:12:30;;;;;;;5.80;2.10;;;26.00;94.60;;;;;;5115573;28;20056;-65
2022/10/18 09:15:12;;;;;;;7.88;2.40;;;26.50;92.00;;;;;;5099088;28;20055;-65
2022/10/18 09:17:51;;;;;;;6.47;2.08;;;26.40;93.10;;;;;;5116669;28;20543;-66
2022/10/18 09:20:23;;;;;;;10.23;2.25;;;26.30;91.50;;;;;;5098301;28;20083;-66
2022/10/18 09:22:55;;;;;;;6.72;2.30;;;26.10;92.60;;;;;;5128695;27;20047;-65
2022/10/18 09:25:25;;;;;;;8.15;2.58;;;26.30;93.20;;;;;;5118733;27;20043;-64
2022/10/18 09:27:55;;;;;;;8.52;2.40;;;26.10;92.40;;;;;;5118661;27;20058;-62
2022/10/18 09:30:48;;;;;;;6.32;2.15;;;26.40;92.50;;;;;;5119082;27;20163;-65
2022/10/18 09:33:38;;;;;;;8.98;2.17;;;26.70;91.30;;;;;;5136513;27;20499;-64
2022/10/18 09:36:05;;;;;;;;;;;26.80;90.50;;;;;;5111464;28;20441;-64
2022/10/18 09:38:37;;;;;;;7.00;2.30;;;26.40;90.90;;;;;;5095891;28;19976;-64
2022/10/18 09:41:10;;;;;;;11.38;2.35;;;26.50;92.60;;;;;;5097656;28;20056;-63
2022/10/18 09:43:45;;;;;;;9.60;2.08;;;26.50;91.00;;;;;;5129799;27;20043;-65
2022/10/18 09:46:15;;;;;;;8.00;2.30;;;26.70;91.90;;;;;;5106918;28;20437;-65
2022/10/18 09:48:49;;;;;;;7.28;2.55;;;26.80;91.10;;;;;;5098594;28;20048;-66
2022/10/18 09:51:20;;;;;;;10.20;2.45;;;27.20;90.30;;;;;;5120187;27;20047;-64
2022/10/18 09:53:58;;;;;;;8.07;2.45;;;27.40;91.00;;;;;;5117211;27;20442;-64
2022/10/18 09:56:29;;;;;;;7.97;2.25;;;27.30;90.60;;;;;;5113254;27;20059;-63
2022/10/18 09:58:56;;;;;;;9.00;2.13;;;27.00;90.10;;;;;;5106239;27;20434;-64
2022/10/18 10:01:25;;;;;;;13.05;2.65;;;27.10;90.60;;;;;;5126217;27;20047;-63
2022/10/18 10:03:53;;;;;;;10.85;2.83;;;27.20;90.10;;;;;;5124121;27;20116;-64
2022/10/18 10:06:26;;;;;;;8.65;1.95;;;27.50;88.50;;;;;;5125831;27;20054;-64
2022/10/18 10:08:58;;;;;;;7.18;1.85;;;27.10;87.30;;;;;;5101224;28;20059;-65
2022/10/18 10:11:31;;;;;;;7.20;1.98;;;27.70;89.40;;;;;;5113075;27;20058;-64
2022/10/18 10:14:18;;;;;;;7.05;2.42;;;27.80;88.50;;;;;;5116331;27;20055;-65
2022/10/18 10:16:49;;;;;;;7.85;2.00;;;27.50;85.70;;;;;;5093550;28;20055;-65
2022/10/18 10:19:24;;;;;;;10.45;2.30;;;27.40;87.40;;;;;;5096255;28;20395;-64
2022/10/18 10:21:56;;;;;;;10.65;2.38;;;27.60;87.60;;;;;;5114763;28;20070;-64
2022/10/18 10:24:27;;;;;;;7.20;2.47;;;27.70;87.10;;;;;;5114007;28;20054;-64
2022/10/18 10:27:03;;;;;;;5.93;2.03;;;27.40;86.90;;;;;;5127980;27;20070;-65
2022/10/18 10:29:57;;;;;;;8.18;2.15;;;26.80;85.30;;;;;;5095652;28;20128;-64
2022/10/18 10:32:27;;;;;;;7.80;2.55;;;26.10;85.70;;;;;;5108545;27;20055;-64
2022/10/18 10:34:55;;;;;;;8.98;2.17;;;26.00;89.10;;;;;;5117563;27;20398;-65
2022/10/18 10:37:40;;;;;;;10.25;2.83;;;26.80;88.50;;;;;;5117259;27;20506;-64
2022/10/18 10:40:17;;;;;;;6.05;2.00;;;26.70;85.40;;;;;;5117602;27;20059;-65
2022/10/18 10:42:57;;;;;;;6.93;2.17;;;26.90;85.50;;;;;;5122952;27;20056;-64
2022/10/18 10:45:27;;;;;;;6.07;1.67;;;26.40;84.80;;;;;;5115861;27;20047;-64
2022/10/18 10:48:01;;;;;;;9.02;2.65;;;25.90;87.70;;;;;;5117539;27;20047;-64
2022/10/18 10:50:30;;;;;;;11.15;2.10;;;26.60;88.60;;;;;;5117056;27;20047;-64
2022/10/18 10:52:58;;;;;;;6.15;2.60;;;26.00;87.70;;;;;;5116926;27;20051;-64
2022/10/18 10:55:30;;;;;;;6.63;2.25;;;25.70;89.50;;;;;;5117423;27;20096;-65
2022/10/18 10:57:57;;;;;;;6.68;1.77;;;25.80;88.40;;;;;;5117172;27;20043;-64
2022/10/18 11:00:38;;;;;;;8.73;2.00;;;26.50;88.00;;;;;;5130996;27;20047;-64
2022/10/18 11:03:10;;;;;;;10.02;2.15;;;26.10;84.90;;;;;;5114821;28;20097;-64
2022/10/18 11:05:45;;;;;;;7.40;2.10;;;26.10;86.30;;;;;;5114087;28;20094;-63
2022/10/18 11:08:16;;;;;;;7.82;2.20;;;26.20;87.40;;;;;;5113807;28;20097;-63
2022/10/18 11:10:56;;;;;;;8.18;1.95;;;26.30;85.90;;;;;;5116377;27;20078;-63
2022/10/18 11:13:34;;;;;;;7.15;2.33;;;25.30;86.60;;;;;;5096078;27;20480;-63
2022/10/18 11:16:10;;;;;;;8.38;2.60;;;24.20;90.30;;;;;;5112599;28;20059;-63
2022/10/18 11:18:39;;;;;;;9.18;2.42;;;22.80;91.30;;;;;;5113169;28;20051;-64
2022/10/18 11:21:12;;;;;;;8.13;1.90;;;22.20;93.10;;;;;;5113989;28;20047;-64
2022/10/18 11:23:42;;;;;;;8.93;2.63;;;22.10;93.90;;;;;;5113234;28;20077;-64
2022/10/18 11:26:29;;;;;;;8.63;2.53;;;22.80;93.50;;;;;;5112706;28;20191;-64
2022/10/18 11:29:11;;;;;;;8.55;2.05;;;24.40;91.40;;;;;;5116215;27;20055;-64
2022/10/18 11:31:44;;;;;;;8.55;1.73;;;24.90;90.70;;;;;;5134728;27;20103;-65
2022/10/18 11:34:31;;;;;;;7.28;2.05;;;24.30;90.80;;;;;;5098904;28;20445;-64
2022/10/18 11:37:09;;;;;;;8.90;2.53;;;23.50;91.20;;;;;;5095997;28;20548;-64
2022/10/18 11:39:45;;;;;;;9.77;2.67;;;22.40;92.60;;;;;;5073870;27;20066;-63
2022/10/18 11:42:21;;;;;;;6.90;2.10;;;21.70;93.50;;;;;;5113608;28;20059;-64
2022/10/18 11:44:58;;;;;;;8.93;2.35;;;21.40;94.30;;;;;;5112660;28;20066;-64
2022/10/18 11:47:33;;;;;;;8.45;2.30;;;21.50;94.40;;;;;;5113431;28;20483;-64
2022/10/18 11:50:11;;;;;;;8.75;1.92;;;21.80;93.90;;;;;;5112659;28;20051;-63
2022/10/18 11:52:48;;;;;;;8.82;2.15;;;21.90;93.60;;;;;;5113700;28;20522;-63
2022/10/18 11:55:33;;;;;;;8.55;2.17;;;22.00;94.10;;;;;;5112056;28;20152;-63
2022/10/18 11:58:07;;;;;;;8.38;2.10;;;21.50;94.50;;;;;;5126081;27;20518;-63
2022/10/18 12:00:47;;;;;;;6.97;1.77;;;21.10;95.00;;;;;;5112070;27;20048;-63
2022/10/18 12:03:30;;;;;;;8.40;2.38;;;22.10;95.20;;;;;;5104558;28;20047;-63
2022/10/18 12:06:02;;;;;;;9.32;1.98;;;23.70;93.60;;;;;;5111593;28;20442;-64
2022/10/18 12:08:35;;;;;;;7.82;2.17;;;25.00;90.70;;;;;;5099136;28;20411;-64
2022/10/18 12:11:09;;;;;;;10.80;2.60;;;24.70;89.50;;;;;;5113872;27;20380;-64
2022/10/18 12:13:42;;;;;;;10.82;2.28;;;23.90;90.50;;;;;;5094436;28;20040;-64
2022/10/18 12:16:10;;;;;;;7.10;2.70;;;23.50;91.90;;;;;;5093508;28;20060;-64
2022/10/18 12:18:46;;;;;;;7.30;2.20;;;24.10;92.00;;;;;;5112466;28;20040;-64
2022/10/18 12:21:13;;;;;;;12.50;2.58;;;24.40;91.40;;;;;;5111228;28;20510;-63
2022/10/18 12:23:49;;;;;;;9.38;1.98;;;25.00;90.80;;;;;;5110981;28;20048;-63
2022/10/18 12:26:17;;;;;;;6.35;2.38;;;25.60;88.10;;;;;;5113724;28;20047;-63
2022/10/18 12:28:52;;;;;;;9.13;2.28;;;25.90;88.00;;;;;;5111885;28;20104;-64
2022/10/18 12:31:24;;;;;;;10.70;2.47;;;26.00;85.60;;;;;;5092437;28;20051;-64
2022/10/18 12:33:56;;;;;;;6.60;2.30;;;26.30;85.60;;;;;;5118162;27;20100;-63
2022/10/18 12:36:51;;;;;;;6.60;1.88;;;27.10;85.30;;;;;;5105439;28;20047;-65
2022/10/18 12:39:24;;;;;;;9.70;2.40;;;27.20;82.30;;;;;;5102606;28;20051;-64
2022/10/18 12:41:56;;;;;;;8.77;2.33;;;26.90;81.10;;;;;;5092838;28;20055;-64
2022/10/18 12:44:30;;;;;;;9.35;2.65;;;26.60;82.70;;;;;;5110182;28;20474;-64
2022/10/18 12:46:59;;;;;;;7.32;1.92;;;27.00;82.50;;;;;;5111279;28;20495;-64
2022/10/18 12:49:29;;;;;;;4.27;1.90;;;27.30;82.60;;;;;;5093152;28;20051;-65